createdAt,value
2019-04-25T00:01:17.329Z,14.64
2019-04-25T00:03:46.905Z,14.66
2019-04-25T00:06:17.682Z,14.52
2019-04-25T00:08:49.136Z,14.36
2019-04-25T00:11:19.370Z,14.25
2019-04-25T00:13:48.742Z,14.00
2019-04-25T00:16:21.622Z,14.06
2019-04-25T00:18:54.693Z,14.12
2019-04-25T00:21:33.865Z,14.20
2019-04-25T00:24:08.574Z,14.23
2019-04-25T00:26:46.306Z,14.19
2019-04-25T00:29:16.834Z,14.21
2019-04-25T00:31:46.167Z,14.23
2019-04-25T00:34:15.809Z,14.20
2019-04-25T00:36:45.610Z,14.20
2019-04-25T00:39:15.184Z,14.15
2019-04-25T00:41:46.260Z,14.08
2019-04-25T00:44:15.718Z,14.14
2019-04-25T00:46:49.087Z,14.18
2019-04-25T00:49:17.360Z,14.22
2019-04-25T00:51:46.945Z,14.23
2019-04-25T00:54:16.167Z,14.09
2019-04-25T00:56:47.914Z,13.96
2019-04-25T00:59:22.376Z,13.90
2019-04-25T01:02:11.488Z,13.90
2019-04-25T01:04:41.936Z,13.98
2019-04-25T01:07:12.658Z,14.01
2019-04-25T01:09:43.466Z,13.89
2019-04-25T01:12:14.908Z,13.70
2019-04-25T01:14:45.687Z,13.53
2019-04-25T01:17:16.138Z,13.43
2019-04-25T01:19:47.415Z,13.36
2019-04-25T01:22:16.971Z,13.30
2019-04-25T01:24:46.178Z,13.07
2019-04-25T01:27:15.711Z,12.76
2019-04-25T01:29:46.367Z,12.68
2019-04-25T01:32:19.041Z,12.54
2019-04-25T01:34:58.384Z,12.71
2019-04-25T01:37:44.403Z,12.78
2019-04-25T01:40:31.184Z,12.88
2019-04-25T01:43:13.815Z,13.00
2019-04-25T01:45:43.822Z,13.03
2019-04-25T01:48:13.739Z,13.09
2019-04-25T01:50:43.788Z,13.15
2019-04-25T01:53:14.587Z,13.12
2019-04-25T01:55:53.628Z,12.60
2019-04-25T01:58:16.454Z,12.34
2019-04-25T02:00:47.869Z,12.16
2019-04-25T02:03:17.393Z,12.10
2019-04-25T02:05:46.993Z,12.11
2019-04-25T02:08:17.416Z,12.06
2019-04-25T02:10:50.765Z,12.06
2019-04-25T02:13:21.219Z,11.95
2019-04-25T02:15:50.638Z,11.42
2019-04-25T02:18:28.054Z,11.10
2019-04-25T02:21:04.370Z,10.99
2019-04-25T02:23:34.105Z,11.15
2019-04-25T02:26:15.235Z,11.24
2019-04-25T02:28:35.518Z,11.49
2019-04-25T02:31:08.682Z,11.50
2019-04-25T02:33:36.358Z,11.41
2019-04-25T02:36:08.590Z,11.25
2019-04-25T02:38:37.755Z,11.15
2019-04-25T02:41:09.155Z,11.07
2019-04-25T02:43:38.734Z,10.95
2019-04-25T02:46:31.631Z,11.06
2019-04-25T02:49:35.892Z,11.21
2019-04-25T02:52:13.096Z,11.29
2019-04-25T02:54:44.998Z,11.36
2019-04-25T02:57:14.874Z,11.24
2019-04-25T02:59:45.142Z,11.33
2019-04-25T03:02:15.666Z,11.17
2019-04-25T03:04:44.967Z,10.93
2019-04-25T03:07:17.577Z,10.92
2019-04-25T03:09:46.539Z,10.71
2019-04-25T03:12:29.824Z,10.51
2019-04-25T03:14:47.328Z,10.36
2019-04-25T03:17:16.577Z,10.45
2019-04-25T03:20:11.977Z,10.44
2019-04-25T03:22:44.516Z,10.56
2019-04-25T03:25:17.323Z,10.48
2019-04-25T03:27:45.183Z,10.12
2019-04-25T03:30:17.923Z,9.89
2019-04-25T03:32:45.930Z,9.83
2019-04-25T03:35:15.134Z,9.81
2019-04-25T03:37:45.347Z,9.76
2019-04-25T03:40:14.663Z,9.78
2019-04-25T03:42:44.200Z,9.86
2019-04-25T03:45:14.663Z,9.83
2019-04-25T03:47:44.041Z,9.80
2019-04-25T03:50:14.797Z,9.68
2019-04-25T03:52:44.594Z,9.64
2019-04-25T03:55:14.482Z,9.50
2019-04-25T03:57:44.383Z,9.38
2019-04-25T04:00:15.331Z,9.42
2019-04-25T04:02:46.929Z,9.54
2019-04-25T04:05:16.180Z,9.64
2019-04-25T04:07:46.351Z,9.66
2019-04-25T04:10:15.597Z,9.63
2019-04-25T04:12:44.810Z,9.77
2019-04-25T04:15:15.800Z,9.95
2019-04-25T04:17:57.235Z,9.99
2019-04-25T04:20:44.110Z,9.79
2019-04-25T04:23:18.341Z,9.77
2019-04-25T04:25:48.063Z,9.88
2019-04-25T04:28:18.811Z,10.06
2019-04-25T04:30:48.042Z,10.25
2019-04-25T04:33:30.011Z,10.31
2019-04-25T04:35:48.598Z,10.08
2019-04-25T04:38:19.170Z,10.23
2019-04-25T04:40:48.893Z,10.29
2019-04-25T04:43:18.423Z,10.38
2019-04-25T04:45:48.805Z,10.42
2019-04-25T04:48:18.837Z,10.55
2019-04-25T04:50:48.172Z,10.65
2019-04-25T04:53:17.390Z,10.62
2019-04-25T04:55:50.036Z,10.51
2019-04-25T04:58:26.597Z,10.47
2019-04-25T05:00:58.292Z,10.67
2019-04-25T05:03:49.643Z,10.73
2019-04-25T05:06:25.158Z,10.91
2019-04-25T05:08:58.322Z,11.16
2019-04-25T05:11:27.869Z,11.32
2019-04-25T05:13:59.430Z,11.37
2019-04-25T05:16:29.672Z,11.49
2019-04-25T05:18:59.740Z,11.65
2019-04-25T05:21:31.476Z,11.68
2019-04-25T05:24:00.705Z,11.80
2019-04-25T05:26:29.937Z,11.86
2019-04-25T05:29:00.231Z,12.01
2019-04-25T05:31:41.101Z,12.06
2019-04-25T05:34:14.551Z,12.17
2019-04-25T05:36:43.892Z,12.22
2019-04-25T05:39:16.338Z,12.40
2019-04-25T05:42:09.566Z,12.40
2019-04-25T05:44:40.374Z,12.67
2019-04-25T05:47:09.605Z,12.78
2019-04-25T05:49:38.806Z,12.83
2019-04-25T05:52:08.302Z,12.99
2019-04-25T05:54:37.526Z,13.05
2019-04-25T05:57:06.755Z,13.09
2019-04-25T05:59:35.991Z,13.13
2019-04-25T06:02:05.356Z,13.35
2019-04-25T06:04:35.261Z,13.54
2019-04-25T06:07:06.148Z,13.68
2019-04-25T06:09:54.701Z,13.81
2019-04-25T06:12:30.773Z,13.94
2019-04-25T06:15:01.365Z,14.15
2019-04-25T06:17:38.441Z,14.29
2019-04-25T06:20:10.152Z,14.39
2019-04-25T06:22:59.259Z,14.43
2019-04-25T06:25:34.775Z,14.33
2019-04-25T06:28:03.772Z,14.41
2019-04-25T06:30:33.294Z,14.39
2019-04-25T06:33:05.392Z,14.46
2019-04-25T06:35:35.969Z,14.38
2019-04-25T06:38:05.526Z,14.38
2019-04-25T06:40:35.016Z,14.71
2019-04-25T06:43:04.549Z,14.96
2019-04-25T06:45:55.657Z,15.15
2019-04-25T06:48:38.218Z,15.35
2019-04-25T06:51:07.872Z,15.55
2019-04-25T06:53:38.254Z,15.57
2019-04-25T06:56:07.480Z,15.53
2019-04-25T06:58:37.199Z,15.58
2019-04-25T07:01:08.980Z,15.67
2019-04-25T07:03:38.349Z,16.02
2019-04-25T07:06:10.077Z,16.14
2019-04-25T07:08:39.826Z,16.27
2019-04-25T07:11:11.316Z,16.25
2019-04-25T07:13:40.951Z,16.38
2019-04-25T07:16:11.373Z,16.57
2019-04-25T07:18:40.969Z,16.76
2019-04-25T07:21:11.418Z,17.11
2019-04-25T07:23:40.686Z,18.11
2019-04-25T07:26:16.856Z,19.97
2019-04-25T07:29:20.413Z,22.26
2019-04-25T07:32:14.451Z,25.10
2019-04-25T07:34:43.958Z,27.75
2019-04-25T07:37:13.320Z,29.39
2019-04-25T07:39:44.196Z,30.71
2019-04-25T07:42:14.148Z,31.52
2019-04-25T07:44:51.651Z,29.51
2019-04-25T07:47:17.341Z,29.77
2019-04-25T07:49:46.575Z,29.16
2019-04-25T07:52:15.824Z,29.54
2019-04-25T07:54:45.377Z,29.36
2019-04-25T07:57:14.907Z,30.38
2019-04-25T07:59:44.165Z,32.82
2019-04-25T08:02:13.708Z,34.36
2019-04-25T08:04:44.199Z,33.99
2019-04-25T08:07:14.252Z,34.14
2019-04-25T08:09:44.361Z,35.55
2019-04-25T08:12:13.710Z,34.30
2019-04-25T08:14:54.890Z,33.18
2019-04-25T08:17:41.722Z,34.78
2019-04-25T08:20:15.243Z,36.27
2019-04-25T08:22:55.675Z,36.23
2019-04-25T08:25:18.286Z,36.48
2019-04-25T08:27:47.513Z,38.36
2019-04-25T08:30:16.758Z,38.36
2019-04-25T08:32:46.660Z,35.30
2019-04-25T08:35:16.177Z,34.83
2019-04-25T08:37:45.834Z,36.49
2019-04-25T08:40:16.003Z,37.26
2019-04-25T08:42:45.245Z,36.31
2019-04-25T08:45:14.996Z,35.86
2019-04-25T08:47:44.207Z,37.13
2019-04-25T08:50:42.825Z,38.68
2019-04-25T08:53:15.283Z,39.14
2019-04-25T08:56:07.811Z,38.62
2019-04-25T08:59:07.969Z,37.92
2019-04-25T09:01:48.253Z,38.44
2019-04-25T09:04:25.917Z,38.96
2019-04-25T09:06:55.447Z,39.81
2019-04-25T09:09:24.766Z,41.13
2019-04-25T09:11:54.462Z,39.41
2019-04-25T09:14:24.741Z,40.12
2019-04-25T09:16:53.970Z,38.85
2019-04-25T09:19:24.148Z,37.52
2019-04-25T09:21:53.514Z,34.82
2019-04-25T09:24:24.417Z,32.71
2019-04-25T09:26:54.120Z,32.48
2019-04-25T09:29:23.580Z,33.33
2019-04-25T09:31:53.755Z,33.30
2019-04-25T09:34:23.906Z,31.99
2019-04-25T09:36:55.446Z,31.07
2019-04-25T09:39:46.995Z,30.15
2019-04-25T09:42:16.567Z,29.38
2019-04-25T09:45:10.556Z,30.52
2019-04-25T09:47:41.301Z,30.86
2019-04-25T09:50:16.426Z,30.17
2019-04-25T09:52:47.043Z,30.60
2019-04-25T09:55:29.958Z,31.02
2019-04-25T09:58:24.106Z,30.76
2019-04-25T10:00:57.497Z,31.22
2019-04-25T10:03:26.851Z,30.54
2019-04-25T10:05:58.386Z,29.68
2019-04-25T10:08:27.649Z,29.46
2019-04-25T10:10:57.086Z,29.13
2019-04-25T10:13:28.579Z,29.07
2019-04-25T10:16:07.241Z,29.62
2019-04-25T10:18:39.370Z,29.13
2019-04-25T10:21:14.311Z,28.86
2019-04-25T10:23:45.361Z,29.37
2019-04-25T10:26:16.131Z,29.57
2019-04-25T10:28:47.548Z,29.27
2019-04-25T10:31:16.828Z,29.76
2019-04-25T10:33:47.007Z,30.71
2019-04-25T10:36:16.722Z,30.32
2019-04-25T10:39:02.304Z,30.38
2019-04-25T10:41:19.441Z,30.75
2019-04-25T10:43:50.470Z,30.41
2019-04-25T10:46:21.780Z,29.81
2019-04-25T10:48:54.103Z,29.87
2019-04-25T10:51:23.982Z,29.75
2019-04-25T10:53:55.028Z,29.77
2019-04-25T10:56:24.441Z,29.32
2019-04-25T10:58:54.992Z,28.70
2019-04-25T11:01:24.644Z,28.40
2019-04-25T11:04:17.970Z,26.81
2019-04-25T11:06:49.322Z,27.50
2019-04-25T11:09:27.320Z,27.80
2019-04-25T11:11:58.251Z,28.60
2019-04-25T11:14:31.568Z,29.28
2019-04-25T11:17:01.714Z,29.73
2019-04-25T11:19:31.125Z,30.71
2019-04-25T11:22:00.363Z,29.88
2019-04-25T11:24:34.625Z,29.62
2019-04-25T11:27:05.569Z,29.44
2019-04-25T11:29:34.815Z,29.60
2019-04-25T11:32:05.453Z,29.60
2019-04-25T11:34:34.797Z,28.91
2019-04-25T11:37:05.907Z,28.38
2019-04-25T11:39:40.474Z,29.04
2019-04-25T11:42:16.732Z,28.20
2019-04-25T11:44:48.065Z,29.02
2019-04-25T11:47:17.802Z,30.00
2019-04-25T11:49:47.846Z,30.63
2019-04-25T11:52:27.308Z,30.95
2019-04-25T11:54:50.088Z,31.08
2019-04-25T11:57:24.475Z,30.02
2019-04-25T12:02:24.004Z,29.68
2019-04-25T12:04:57.298Z,28.64
2019-04-25T12:07:26.994Z,29.24
2019-04-25T12:09:56.225Z,28.94
2019-04-25T12:12:25.459Z,28.10
2019-04-25T12:14:55.385Z,28.62
2019-04-25T12:17:26.610Z,28.70
2019-04-25T12:19:57.499Z,28.51
2019-04-25T12:22:26.806Z,28.72
2019-04-25T12:24:56.371Z,27.73
2019-04-25T12:27:25.825Z,27.51
2019-04-25T12:29:55.060Z,27.65
2019-04-25T12:32:26.857Z,28.25
2019-04-25T12:34:56.173Z,29.19
2019-04-25T12:37:25.469Z,28.81
2019-04-25T12:39:54.723Z,29.43
2019-04-25T12:42:24.288Z,29.30
2019-04-25T12:45:04.187Z,28.74
2019-04-25T12:47:34.409Z,28.67
2019-04-25T12:50:05.217Z,28.79
2019-04-25T12:52:34.466Z,29.03
2019-04-25T12:55:04.238Z,28.57
2019-04-25T12:57:33.443Z,28.05
2019-04-25T13:00:04.167Z,27.77
2019-04-25T13:02:36.260Z,27.87
2019-04-25T13:05:07.327Z,28.10
2019-04-25T13:07:37.878Z,28.39
2019-04-25T13:10:08.131Z,28.24
2019-04-25T13:12:39.953Z,28.73
2019-04-25T13:15:09.848Z,29.06
2019-04-25T13:17:39.486Z,28.95
2019-04-25T13:20:09.896Z,29.18
2019-04-25T13:22:39.273Z,29.23
2019-04-25T13:25:11.013Z,29.12
2019-04-25T13:27:49.463Z,30.00
2019-04-25T13:30:41.328Z,30.66
2019-04-25T13:33:35.329Z,29.76
2019-04-25T13:36:10.991Z,29.03
2019-04-25T13:38:40.289Z,28.43
2019-04-25T13:41:09.505Z,28.54
2019-04-25T13:43:38.901Z,28.20
2019-04-25T13:46:10.809Z,28.26
2019-04-25T13:48:41.158Z,28.19
2019-04-25T13:51:10.371Z,28.31
2019-04-25T13:53:43.586Z,28.09
2019-04-25T13:56:13.368Z,28.19
2019-04-25T13:58:44.166Z,28.45
2019-04-25T14:01:17.325Z,28.51
2019-04-25T14:03:46.631Z,28.99
2019-04-25T14:06:21.266Z,28.73
2019-04-25T14:08:50.481Z,27.93
2019-04-25T14:11:20.571Z,27.86
2019-04-25T14:13:50.793Z,27.30
2019-04-25T14:16:43.373Z,27.16
2019-04-25T14:19:34.886Z,27.57
2019-04-25T14:22:04.934Z,27.71
2019-04-25T14:24:35.789Z,28.05
2019-04-25T14:27:05.239Z,28.38
2019-04-25T14:29:34.796Z,28.65
2019-04-25T14:32:07.816Z,28.54
2019-04-25T14:34:38.180Z,28.68
2019-04-25T14:37:07.731Z,28.82
2019-04-25T14:39:36.987Z,29.20
2019-04-25T14:42:06.412Z,29.63
2019-04-25T14:44:35.672Z,29.72
2019-04-25T14:47:05.851Z,29.55
2019-04-25T14:49:35.085Z,29.61
2019-04-25T14:52:04.718Z,29.80
2019-04-25T14:55:08.000Z,29.68
2019-04-25T14:57:37.306Z,29.20
2019-04-25T15:00:19.844Z,29.30
2019-04-25T15:02:49.073Z,29.19
2019-04-25T15:05:18.327Z,28.52
2019-04-25T15:07:48.303Z,28.14
2019-04-25T15:10:17.561Z,28.18
2019-04-25T15:12:47.251Z,28.36
2019-04-25T15:15:16.852Z,28.18
2019-04-25T15:17:47.676Z,28.12
2019-04-25T15:20:21.758Z,27.86
2019-04-25T15:22:51.778Z,28.08
2019-04-25T15:25:21.024Z,28.01
2019-04-25T15:27:50.616Z,28.20
2019-04-25T15:30:29.322Z,28.82
2019-04-25T15:32:58.536Z,28.78
2019-04-25T15:35:41.025Z,28.97
2019-04-25T15:38:14.549Z,28.36
2019-04-25T15:41:01.123Z,28.14
2019-04-25T15:43:52.240Z,28.17
2019-04-25T15:46:27.662Z,28.45
2019-04-25T15:48:56.702Z,28.17
2019-04-25T15:51:26.987Z,28.06
2019-04-25T15:53:56.225Z,28.39
2019-04-25T15:56:26.083Z,28.52
2019-04-25T15:58:55.256Z,28.42
2019-04-25T16:01:26.403Z,28.48
2019-04-25T16:03:56.876Z,28.43
2019-04-25T16:06:27.777Z,28.20
2019-04-25T16:08:57.034Z,27.59
2019-04-25T16:11:26.615Z,27.07
2019-04-25T16:13:55.867Z,26.86
2019-04-25T16:16:26.775Z,26.95
2019-04-25T16:18:58.423Z,27.40
2019-04-25T16:21:27.888Z,27.38
2019-04-25T16:23:57.110Z,27.28
2019-04-25T16:26:27.002Z,26.89
2019-04-25T16:28:57.146Z,26.97
2019-04-25T16:31:28.097Z,27.27
2019-04-25T16:33:58.644Z,27.33
2019-04-25T16:36:27.861Z,27.11
2019-04-25T16:38:57.111Z,27.54
2019-04-25T16:41:28.575Z,27.77
2019-04-25T16:44:02.862Z,27.72
2019-04-25T16:46:34.145Z,27.71
2019-04-25T16:49:03.441Z,27.55
2019-04-25T16:51:33.762Z,27.90
2019-04-25T16:54:03.032Z,28.17
2019-04-25T16:56:32.569Z,28.30
2019-04-25T16:59:02.362Z,28.66
2019-04-25T17:01:31.735Z,28.71
2019-04-25T17:04:00.941Z,28.81
2019-04-25T17:06:32.160Z,28.88
2019-04-25T17:09:01.421Z,28.63
2019-04-25T17:11:32.405Z,28.50
2019-04-25T17:14:16.389Z,28.48
2019-04-25T17:16:58.409Z,28.55
2019-04-25T17:19:40.587Z,28.33
2019-04-25T17:22:09.807Z,28.21
2019-04-25T17:24:39.286Z,28.20
2019-04-25T17:27:09.591Z,28.01
2019-04-25T17:29:40.097Z,27.79
2019-04-25T17:32:19.351Z,27.41
2019-04-25T17:35:14.464Z,26.82
2019-04-25T17:37:51.724Z,26.31
2019-04-25T17:40:24.890Z,25.98
2019-04-25T17:42:55.575Z,25.93
2019-04-25T17:45:29.599Z,26.09
2019-04-25T17:47:59.630Z,26.18
2019-04-25T17:50:29.120Z,26.08
2019-04-25T17:52:58.623Z,25.87
2019-04-25T17:55:35.090Z,25.71
2019-04-25T17:58:04.392Z,25.47
2019-04-25T18:00:39.968Z,25.22
2019-04-25T18:03:10.949Z,25.05
2019-04-25T18:05:41.542Z,24.77
2019-04-25T18:08:11.727Z,24.53
2019-04-25T18:10:41.931Z,24.32
2019-04-25T18:13:13.213Z,24.17
2019-04-25T18:16:01.015Z,24.04
2019-04-25T18:19:04.464Z,23.95
2019-04-25T18:21:38.517Z,23.91
2019-04-25T18:24:28.034Z,23.81
2019-04-25T18:27:07.839Z,23.72
2019-04-25T18:29:37.429Z,23.66
2019-04-25T18:32:07.822Z,23.60
2019-04-25T18:34:43.152Z,23.52
2019-04-25T18:37:37.693Z,23.41
2019-04-25T18:40:25.318Z,23.34
2019-04-25T18:43:05.629Z,23.26
2019-04-25T18:45:38.335Z,23.08
2019-04-25T18:48:08.186Z,22.90
2019-04-25T18:50:38.545Z,22.80
2019-04-25T18:53:26.997Z,22.68
2019-04-25T18:56:11.652Z,22.58
2019-04-25T18:59:05.628Z,22.39
2019-04-25T19:02:02.718Z,22.06
2019-04-25T19:04:39.820Z,21.93
2019-04-25T19:07:21.929Z,21.76
2019-04-25T19:09:43.726Z,21.68
2019-04-25T19:12:12.949Z,21.46
2019-04-25T19:14:43.147Z,21.35
2019-04-25T19:17:14.199Z,21.25
2019-04-25T19:19:44.288Z,21.10
2019-04-25T19:22:14.433Z,21.05
2019-04-25T19:24:45.904Z,21.02
2019-04-25T19:27:23.595Z,20.97
2019-04-25T19:29:46.235Z,20.90
2019-04-25T19:32:15.498Z,20.85
2019-04-25T19:34:44.764Z,20.81
2019-04-25T19:37:15.489Z,20.77
2019-04-25T19:39:49.999Z,20.70
2019-04-25T19:42:28.191Z,20.67
2019-04-25T19:44:57.471Z,20.55
2019-04-25T19:47:26.846Z,20.39
2019-04-25T19:49:56.081Z,20.22
2019-04-25T19:52:25.338Z,20.11
2019-04-25T19:54:55.494Z,20.05
2019-04-25T19:57:25.247Z,20.02
2019-04-25T19:59:54.490Z,19.97
2019-04-25T20:02:37.694Z,19.98
2019-04-25T20:05:15.095Z,19.96
2019-04-25T20:07:49.527Z,19.88
2019-04-25T20:10:31.532Z,19.90
2019-04-25T20:13:00.772Z,19.87
2019-04-25T20:15:30.309Z,19.78
2019-04-25T20:17:59.400Z,19.74
2019-04-25T20:20:31.589Z,19.71
2019-04-25T20:23:01.574Z,19.65
2019-04-25T20:25:30.919Z,19.54
2019-04-25T20:28:00.228Z,19.47
2019-04-25T20:30:29.461Z,19.39
2019-04-25T20:32:59.088Z,19.36
2019-04-25T20:35:29.223Z,19.34
2019-04-25T20:37:58.839Z,19.25
2019-04-25T20:40:28.049Z,19.12
2019-04-25T20:42:57.639Z,19.14
2019-04-25T20:45:26.867Z,19.09
2019-04-25T20:47:56.923Z,19.09
2019-04-25T20:50:26.937Z,19.05
2019-04-25T20:53:03.326Z,18.92
2019-04-25T20:55:32.555Z,18.88
2019-04-25T20:58:04.453Z,18.92
2019-04-25T21:00:40.513Z,18.87
2019-04-25T21:03:10.171Z,18.81
2019-04-25T21:05:39.512Z,18.79
2019-04-25T21:08:08.772Z,18.66
2019-04-25T21:10:38.425Z,18.66
2019-04-25T21:13:11.021Z,18.56
2019-04-25T21:15:52.096Z,18.54
2019-04-25T21:18:30.775Z,18.48
2019-04-25T21:21:01.308Z,18.37
2019-04-25T21:23:32.380Z,18.17
2019-04-25T21:26:03.956Z,18.08
2019-04-25T21:28:34.307Z,17.99
2019-04-25T21:31:03.565Z,17.99
2019-04-25T21:33:32.854Z,17.98
2019-04-25T21:36:02.590Z,17.85
2019-04-25T21:38:32.233Z,17.76
2019-04-25T21:41:26.991Z,17.71
2019-04-25T21:44:02.273Z,17.67
2019-04-25T21:46:33.147Z,17.75
2019-04-25T21:49:03.137Z,17.84
2019-04-25T21:51:33.250Z,17.75
2019-04-25T21:54:05.429Z,17.72
2019-04-25T21:56:35.381Z,17.68
2019-04-25T21:59:04.822Z,17.68
2019-04-25T22:01:39.847Z,17.54
2019-04-25T22:04:09.086Z,17.45
2019-04-25T22:06:39.178Z,17.32
2019-04-25T22:09:12.915Z,17.29
2019-04-25T22:11:42.440Z,17.25
2019-04-25T22:14:12.610Z,17.20
2019-04-25T22:16:42.011Z,17.21
2019-04-25T22:19:12.538Z,17.13
2019-04-25T22:21:43.647Z,17.18
2019-04-25T22:24:14.711Z,17.17
2019-04-25T22:26:44.206Z,17.02
2019-04-25T22:29:15.095Z,16.87
2019-04-25T22:31:52.131Z,16.71
2019-04-25T22:34:30.321Z,16.60
2019-04-25T22:36:59.961Z,16.53
2019-04-25T22:39:29.459Z,16.39
2019-04-25T22:41:59.578Z,16.40
2019-04-25T22:44:30.263Z,16.34
2019-04-25T22:47:00.821Z,16.27
2019-04-25T22:49:30.612Z,16.24
2019-04-25T22:52:02.120Z,16.13
2019-04-25T22:54:32.721Z,16.05
2019-04-25T22:57:02.630Z,16.04
2019-04-25T22:59:32.196Z,16.10
2019-04-25T23:02:12.013Z,16.06
2019-04-25T23:05:09.460Z,16.02
2019-04-25T23:07:35.808Z,16.07
2019-04-25T23:10:06.469Z,16.08
2019-04-25T23:12:36.884Z,15.95
2019-04-25T23:15:06.776Z,15.89
2019-04-25T23:17:36.189Z,16.01
2019-04-25T23:20:07.838Z,15.89
2019-04-25T23:22:37.491Z,15.93
2019-04-25T23:25:12.306Z,15.84
2019-04-25T23:27:52.548Z,15.68
2019-04-25T23:30:24.805Z,15.70
2019-04-25T23:32:54.043Z,15.65
2019-04-25T23:35:31.795Z,15.52
2019-04-25T23:37:54.781Z,15.48
2019-04-25T23:40:24.028Z,15.53
2019-04-25T23:42:55.040Z,15.53
2019-04-25T23:45:24.229Z,15.47
2019-04-25T23:48:03.702Z,15.52
2019-04-25T23:50:33.213Z,15.50
2019-04-25T23:53:02.596Z,15.40
2019-04-25T23:55:32.173Z,15.32
2019-04-25T23:58:01.881Z,15.33
